Metar Cercanos

 

LEPA - Palma De Mallorc, Spain
Distance from station: ONO 38km
Actualización: Mon, 06-Dec-2021 7:00pm CET
Few Clouds
Few Clouds
 Viento del varies
Viento: varies 4 km/h
Temperatura: 12°C
Rocío: 6°C
Humedad: 67%
Barómetro: 1020 hPa
Clouds: Few Clouds
Visibility: 10 km
Cloud details: Few Clouds 914 m
2021/12/06 18:00 LEPA 061800Z VRB02KT 9999 FEW030 12/06 Q1020 NOSIG
LEMH - Mahon/Menorca Is, Spain
Distance from station: ENE 105km
Actualización: Mon, 06-Dec-2021 7:00pm CET
Few Clouds
Few Clouds
 Viento del ONO
Viento: ONO 7 km/h
Temperatura: 9°C
Sensación frio: 8°C
Rocío: 4°C
Humedad: 71%
Barómetro: 1019 hPa
Clouds: Few Clouds
Visibility: 10 km
Cloud details: Few Clouds 914 m
2021/12/06 18:00 LEMH 061800Z 30004KT 9999 FEW030 09/04 Q1019
 
LEIB - Ibiza/Es Codola, Spain
Distance from station: OSO 165km
Actualización: Mon, 06-Dec-2021 7:00pm CET
Despejado
Despejado
 Viento del varies
Viento: varies 2 km/h
Temperatura: 11°C
Rocío: 5°C
Humedad: 67%
Barómetro: 1021 hPa
Resumen: Despejado
Visibility: greater than 10 km
2021/12/06 18:00 LEIB 061800Z VRB01KT CAVOK 11/05 Q1021 NOSIG
LEBL - Barcelona Airpor, Spain
Distance from station: NNO 225km
Actualización: Mon, 06-Dec-2021 7:00pm CET
Few Clouds
Few Clouds
 Viento del varies
Viento: varies 4 km/h
Temperatura: 10°C
Rocío: 2°C
Humedad: 58%
Barómetro: 1018 hPa
Clouds: Few Clouds
Visibility: 10 km
Cloud details: Few Clouds 1829 m
2021/12/06 18:00 LEBL 061800Z VRB02KT 9999 FEW060 10/02 Q1018 NOSIG
 
LEVC - Valencia (civ/Mi, Spain
Distance from station: NO 188km
Actualización: Mon, 06-Dec-2021 7:00pm CET
Despejado
Despejado
 Viento del O
Viento: O 22 km/h
Temperatura: 16°C
Rocío: 3°C
Humedad: 42%
Barómetro: 1020 hPa
Resumen: Despejado
Visibility: greater than 10 km
2021/12/06 18:00 LEVC 061800Z 26012KT CAVOK 16/03 Q1020 NOSIG
LEGE - Gerona/Costa Bra, Spain
Distance from station: N 276km
Actualización: Mon, 06-Dec-2021 7:00pm CET
Few Clouds
Few Clouds
 Viento del calm
Viento: Calma
Temperatura: 8°C
Rocío: 3°C
Humedad: 71%
Barómetro: 1018 hPa
Clouds: Few Clouds
Visibility: 10 km
Cloud details: Few Clouds 1219 m
2021/12/06 18:00 LEGE 061800Z 00000KT 9999 FEW040 08/03 Q1018
 
LEAL - Alicante/El Alte, Spain
Distance from station: OSO 344km
Actualización: Mon, 06-Dec-2021 7:00pm CET
Despejado
Despejado
 Viento del O
Viento: O 24 km/h
Temperatura: 15°C
Rocío: 3°C
Humedad: 45%
Barómetro: 1022 hPa
Resumen: Despejado
Visibility: greater than 10 km
2021/12/06 18:00 LEAL 061800Z 28013KT CAVOK 15/03 Q1022 NOSIG
LEAM - Almeria Airport, Spain
Distance from station: SSO 56km
Actualización: Mon, 06-Dec-2021 7:00pm CET
Despejado
Despejado
 Viento del O
Viento: O 11 km/h
Temperatura: 14°C
Rocío: 10°C
Humedad: 77%
Barómetro: 1024 hPa
Resumen: Despejado
Visibility: greater than 10 km
2021/12/06 18:00 LEAM 061800Z 26006KT 220V290 CAVOK 14/10 Q1024
 
LEZG - Zaragoza (mil/Ci, Spain
Distance from station: NO 431km
Actualización: Mon, 06-Dec-2021 7:00pm CET
Cubierto
Cubierto
 Viento del OSO
Viento: OSO 9 km/h
Temperatura: 11°C
Rocío: 8°C
Humedad: 82%
Barómetro: 1020 hPa
Clouds: Cubierto
Visibility: 10 km
Cloud details: Cubierto 1524 m
2021/12/06 18:00 LEZG 061800Z 25005KT 9999 OVC050 11/08 Q1020
LEMD - Madrid/Barajas, Spain
Distance from station: ONO 234km
Actualización: Mon, 06-Dec-2021 7:00pm CET
Few Clouds
Few Clouds
 Viento del SE
Viento: SE 4 km/h
Temperatura: 12°C
Rocío: 4°C
Humedad: 58%
Barómetro: 1024 hPa
Clouds: Few Clouds
Visibility: 10 km
Cloud details: Few Clouds 1829 m
2021/12/06 18:00 LEMD 061800Z 13002KT 9999 FEW060 12/04 Q1024 NOSIG
 
LEGR - Granada Airport, Spain
Distance from station: OSO 62km
Actualización: Mon, 06-Dec-2021 7:00pm CET
Despejado
Despejado
 Viento del O
Viento: O 15 km/h
Temperatura: 10°C
Sensación frio: 8°C
Rocío: 5°C
Humedad: 71%
Barómetro: 1026 hPa
Resumen: Despejado
Visibility: greater than 10 km
2021/12/06 18:00 LEGR 061800Z 27008KT CAVOK 10/05 Q1026
LEMG - Malaga (civ/Mil), Spain
Distance from station: OSO 227km
Actualización: Mon, 06-Dec-2021 7:00pm CET
Despejado
Despejado
 Viento del O
Viento: O 24 km/h
Temperatura: 15°C
Rocío: 4°C
Humedad: 48%
Barómetro: 1025 hPa
Resumen: Despejado
Visibility: greater than 10 km
2021/12/06 18:00 LEMG 061800Z 28013KT CAVOK 15/04 Q1025 NOSIG
 
LEZL - Sevilla (civ/Mil, Spain
Distance from station: S 318km
Actualización: Mon, 06-Dec-2021 7:00pm CET
Despejado
Despejado
 Viento del S
Viento: S 7 km/h
Temperatura: 13°C
Rocío: 5°C
Humedad: 59%
Barómetro: 1027 hPa
Resumen: Despejado
Visibility: greater than 10 km
2021/12/06 18:00 LEZL 061800Z 19004KT CAVOK 13/05 Q1027 NOSIG
LEVT - Vitoria, Spain
Distance from station: NO 226km
Actualización: Mon, 06-Dec-2021 7:00pm CET
Drizzle, Cubierto
Drizzle, Cubierto
 Viento del SO
Viento: SO 13 km/h
Temperatura: 9°C
Sensación frio: 7°C
Rocío: 8°C
Humedad: 94%
Barómetro: 1022 hPa
Resumen: Drizzle
Clouds: Cubierto
Visibility: 6 km
Cloud details: Cubierto 610 m
2021/12/06 18:00 LEVT 061800Z 23007KT 6000 DZ OVC020 09/08 Q1022 RERA
 
LEBB - Bilbao/Sondica, Spain
Distance from station: NNO 235km
Actualización: Mon, 06-Dec-2021 7:00pm CET
Drizzle, Muy nuboso
Drizzle, Muy nuboso
 Viento del ONO
Viento: ONO 28 km/h
Temperatura: 14°C
Rocío: 14°C
Humedad: 100%
Barómetro: 1022 hPa
Resumen: Drizzle
Clouds: Muy nuboso
Visibility: 7 km
Cloud details: Few Clouds 244 m
Parcialmente nuboso 396 m
Muy nuboso 610 m
2021/12/06 18:00 LEBB 061800Z 29015KT 260V320 7000 DZ FEW008 SCT013 BKN020 14/14 Q1022 TEMPO 3000 BKN012
LESO - San Sebastian/Fu, Spain
Distance from station: N 231km
Actualización: Mon, 06-Dec-2021 7:00pm CET
Heavy drizzle, Mist, Cubierto
Heavy drizzle, Mist, Cubierto
 Viento del varies
Viento: varies 15 km/h, Racha: 41 km/h
Temperatura: 14°C
Rocío: 14°C
Humedad: 100%
Barómetro: 1021 hPa
Resumen: Heavy drizzle, Mist
Clouds: Cubierto
Visibility: 3 km
Cloud details: Cubierto 183 m
2021/12/06 18:00 LESO 061800Z VRB08G22KT 2800 +DZ BR OVC006 14/14 Q1021
 
LEVD - Valladolid(Mil/C, Spain
Distance from station: ONO 239km
Actualización: Mon, 06-Dec-2021 7:00pm CET
Few Clouds
Few Clouds
 Viento del O
Viento: O 17 km/h
Temperatura: 7°C
Sensación frio: 4°C
Rocío: 6°C
Humedad: 93%
Barómetro: 1024 hPa
Clouds: Few Clouds
Visibility: 10 km
Cloud details: Few Clouds 213 m
2021/12/06 18:00 LEVD 061800Z 26009KT 9999 FEW007 07/06 Q1024
LESA - Salamanca (civ/M, Spain
Distance from station: ONO 349km
Actualización: Mon, 06-Dec-2021 7:00pm CET
Cubierto
Cubierto
 Viento del O
Viento: O 15 km/h
Temperatura: 8°C
Sensación frio: 5°C
Rocío: 7°C
Humedad: 93%
Barómetro: 1026 hPa
Clouds: Cubierto
Visibility: 10 km
Cloud details: Cubierto 274 m
2021/12/06 18:00 LESA 061800Z 26008KT 9999 OVC009 08/07 Q1026
 
LEXJ - Santander/Paraya, Spain
Distance from station: NNO 247km
Actualización: Mon, 06-Dec-2021 7:00pm CET
Muy nuboso
Muy nuboso
 Viento del ONO
Viento: ONO 17 km/h
Temperatura: 14°C
Rocío: 12°C
Humedad: 88%
Barómetro: 1023 hPa
Clouds: Muy nuboso
Visibility: 7 km
Cloud details: Few Clouds 152 m
Parcialmente nuboso 305 m
Muy nuboso 549 m
2021/12/06 18:00 LEXJ 061800Z 30009KT 270V350 7000 FEW005 SCT010 BKN018 14/12 Q1023 REDZ
LEAS - Asturias/Aviles, Spain
Distance from station: NO 214km
Actualización: Mon, 06-Dec-2021 7:00pm CET
Lluvia débil, Muy nuboso
Lluvia débil, Muy nuboso
 Viento del O
Viento: O 19 km/h
Temperatura: 12°C
Rocío: 12°C
Humedad: 100%
Barómetro: 1023 hPa
Resumen: Lluvia débil
Clouds: Muy nuboso
Visibility: 2 km
Cloud details: Parcialmente nuboso 91 m
Muy nuboso 244 m
2021/12/06 18:00 LEAS 061800Z 27010KT 2000 -RA SCT003 BKN008 12/12 Q1023 TEMPO BKN005
 
LECO - La Coruna/Alvedr, Spain
Distance from station: ONO 222km
Actualización: Mon, 06-Dec-2021 7:00pm CET
Light drizzle, Mist, Cubierto
Light drizzle, Mist, Cubierto
 Viento del varies
Viento: varies 4 km/h
Temperatura: 13°C
Rocío: 13°C
Humedad: 100%
Barómetro: 1024 hPa
Resumen: Light drizzle, Mist
Clouds: Cubierto
Visibility: 5 km
Cloud details: Few Clouds 91 m
Muy nuboso 274 m
Cubierto 427 m
2021/12/06 18:00 LECO 061800Z VRB02KT 5000 -DZ BR FEW003 BKN009 OVC014 13/13 Q1024 TEMPO 1500 BKN005
LEVX - Vigo/Peinador, Spain
Distance from station: O 214km
Actualización: Mon, 06-Dec-2021 7:00pm CET
Light drizzle, Niebla, Cubierto
Light drizzle, Niebla, Cubierto
 Viento del S
Viento: S 15 km/h
Temperatura: 11°C
Rocío: 11°C
Humedad: 100%
Barómetro: 1025 hPa
Resumen: Light drizzle, Niebla
Clouds: Cubierto
Visibility: 0 km
Cloud details: Cubierto 30 m
2021/12/06 18:00 LEVX 061800Z 19008KT 130V230 0200 R19/0700D R01/0250N -DZ FG VV001 11/11 Q1025 NOSIG